Time;durP1;ratioP1;P1;durP2;ratioP2;P2;SDS_P1;SDS_P2;PMS_P1;PMS_P2;Temp;Humidity;BMP_temperature;BMP_pressure;BME280_temperature;BME280_humidity;BME280_pressure;Samples;Min_cycle;Max_cycle;Signal;HPM_P1;HPM_P2
2021/05/24 00:00:21;;;;;;;7.30;5.00;;;8.20;87.40;;;;;;5018691;28;20242;-87
2021/05/24 00:02:47;;;;;;;9.03;5.30;;;8.20;87.50;;;;;;5018618;28;20184;-87
2021/05/24 00:05:17;;;;;;;7.57;5.23;;;8.20;87.30;;;;;;5018624;28;20221;-88
2021/05/24 00:07:42;;;;;;;13.63;5.03;;;8.20;87.50;;;;;;5036729;28;20243;-88
2021/05/24 00:10:11;;;;;;;8.47;5.10;;;8.30;87.30;;;;;;5018596;28;20591;-88
2021/05/24 00:12:37;;;;;;;7.87;4.60;;;8.20;87.40;;;;;;5036556;28;20196;-88
2021/05/24 00:15:05;;;;;;;10.23;5.13;;;8.20;87.50;;;;;;5018394;28;20683;-87
2021/05/24 00:17:31;;;;;;;9.17;5.40;;;8.20;87.50;;;;;;5018326;28;20180;-88
2021/05/24 00:19:56;;;;;;;8.27;4.77;;;8.10;87.60;;;;;;5018404;28;20173;-87
2021/05/24 00:22:22;;;;;;;9.20;4.77;;;8.10;87.60;;;;;;5036083;28;20259;-87
2021/05/24 00:24:48;;;;;;;7.93;4.83;;;8.20;87.70;;;;;;5018236;28;20168;-87
2021/05/24 00:27:13;;;;;;;9.70;5.53;;;8.10;87.70;;;;;;5036241;28;20542;-87
2021/05/24 00:29:40;;;;;;;6.70;4.97;;;8.00;88.00;;;;;;5018272;28;20609;-87
2021/05/24 00:32:06;;;;;;;7.83;4.90;;;8.10;88.10;;;;;;5018048;28;20176;-87
2021/05/24 00:34:31;;;;;;;12.27;4.70;;;8.10;88.00;;;;;;5036173;28;20628;-87
2021/05/24 00:36:57;;;;;;;8.20;4.43;;;8.10;88.20;;;;;;5018022;28;20200;-87
2021/05/24 00:39:23;;;;;;;7.10;4.50;;;8.10;88.10;;;;;;5035796;28;20168;-88
2021/05/24 00:41:50;;;;;;;7.90;4.53;;;8.10;88.00;;;;;;5018233;28;20671;-87
2021/05/24 00:44:15;;;;;;;8.17;4.83;;;8.20;88.00;;;;;;5034828;28;20262;-88
2021/05/24 00:46:41;;;;;;;7.70;4.50;;;8.20;87.90;;;;;;5017861;28;20192;-88
2021/05/24 00:49:07;;;;;;;10.03;4.60;;;8.30;87.90;;;;;;5017948;28;20659;-88
2021/05/24 00:51:35;;;;;;;7.37;4.13;;;8.30;87.90;;;;;;5017838;28;20173;-88
2021/05/24 00:54:02;;;;;;;7.50;4.57;;;8.30;87.90;;;;;;5001838;28;20212;-88
2021/05/24 00:56:28;;;;;;;9.40;4.50;;;8.30;87.80;;;;;;5017906;28;20209;-88
2021/05/24 00:58:54;;;;;;;10.93;4.57;;;8.30;87.60;;;;;;5035421;28;20172;-88
2021/05/24 01:01:21;;;;;;;10.27;4.40;;;8.40;87.50;;;;;;5017865;28;20200;-88
2021/05/24 01:03:47;;;;;;;6.17;4.13;;;8.40;87.40;;;;;;5035425;28;20223;-88
2021/05/24 01:06:13;;;;;;;9.17;3.67;;;8.40;87.40;;;;;;5033884;28;20212;-88
2021/05/24 01:08:39;;;;;;;6.53;4.30;;;8.40;87.20;;;;;;5017510;28;20168;-88
2021/05/24 01:11:05;;;;;;;12.37;3.70;;;8.40;87.20;;;;;;5017467;28;20178;-88
2021/05/24 01:13:30;;;;;;;10.47;4.57;;;8.40;87.20;;;;;;5017417;28;20181;-88
2021/05/24 01:15:56;;;;;;;6.67;4.10;;;8.40;87.20;;;;;;5017610;28;20683;-88
2021/05/24 01:18:22;;;;;;;8.00;3.60;;;8.30;87.20;;;;;;5033835;28;20275;-88
2021/05/24 01:20:48;;;;;;;11.30;4.43;;;8.30;87.10;;;;;;5017259;28;20204;-87
2021/05/24 01:23:15;;;;;;;9.90;4.10;;;8.40;87.10;;;;;;5033730;28;20177;-88
2021/05/24 01:25:47;;;;;;;13.17;3.97;;;8.40;87.10;;;;;;5034802;28;20561;-88
2021/05/24 01:28:15;;;;;;;5.53;3.83;;;8.30;86.90;;;;;;5017263;28;20234;-88
2021/05/24 01:30:42;;;;;;;12.13;3.77;;;8.30;86.90;;;;;;5035082;28;20633;-88
2021/05/24 01:33:09;;;;;;;5.70;3.50;;;8.30;86.90;;;;;;5017118;28;20215;-88
2021/05/24 01:35:38;;;;;;;6.63;3.33;;;8.30;86.80;;;;;;5016905;28;20199;-88
2021/05/24 01:38:04;;;;;;;5.43;3.60;;;8.40;86.90;;;;;;5034902;28;20173;-88
2021/05/24 01:40:30;;;;;;;5.13;3.60;;;8.40;86.70;;;;;;5016887;28;20203;-87
2021/05/24 01:42:58;;;;;;;6.30;3.60;;;8.40;86.60;;;;;;5016910;28;20223;-88
2021/05/24 01:45:25;;;;;;;4.23;3.13;;;8.40;86.60;;;;;;5016627;28;20200;-87
2021/05/24 01:47:50;;;;;;;5.90;3.60;;;8.40;86.80;;;;;;5017142;28;20200;-87
2021/05/24 01:50:16;;;;;;;5.27;3.70;;;8.40;86.80;;;;;;5016684;28;20181;-87
2021/05/24 01:52:43;;;;;;;6.70;3.73;;;8.50;86.70;;;;;;5034318;28;20230;-88
2021/05/24 01:55:10;;;;;;;5.87;3.77;;;8.50;86.70;;;;;;5016850;28;20206;-87
2021/05/24 01:57:36;;;;;;;8.30;3.57;;;8.40;86.80;;;;;;5034276;28;20231;-88
2021/05/24 02:00:08;;;;;;;6.00;3.80;;;8.50;86.90;;;;;;5034129;28;20229;-87
2021/05/24 02:02:34;;;;;;;6.87;4.10;;;8.50;87.10;;;;;;5016462;28;20172;-88
2021/05/24 02:04:59;;;;;;;10.80;4.90;;;8.50;87.00;;;;;;5016587;28;20271;-87
2021/05/24 02:07:29;;;;;;;5.80;3.73;;;8.50;86.90;;;;;;5033015;28;20534;-87
2021/05/24 02:09:56;;;;;;;9.00;4.53;;;8.50;86.80;;;;;;5033222;28;20262;-87
2021/05/24 02:12:22;;;;;;;8.53;4.23;;;8.50;86.80;;;;;;5016286;28;20193;-87
2021/05/24 02:14:52;;;;;;;7.83;4.03;;;8.50;86.70;;;;;;5016234;28;20181;-87
2021/05/24 02:17:19;;;;;;;13.83;4.40;;;8.40;86.80;;;;;;5016269;28;20171;-87
2021/05/24 02:19:47;;;;;;;9.37;4.03;;;8.50;86.80;;;;;;5016053;28;20183;-88
2021/05/24 02:22:13;;;;;;;6.90;4.43;;;8.50;86.80;;;;;;5016183;28;20645;-88
2021/05/24 02:24:38;;;;;;;8.37;4.30;;;8.50;86.70;;;;;;5033744;28;20183;-88
2021/05/24 02:27:04;;;;;;;6.47;3.60;;;8.50;86.60;;;;;;5032566;28;20266;-88
2021/05/24 02:29:30;;;;;;;7.80;3.70;;;8.50;86.50;;;;;;5034204;28;20262;-88
2021/05/24 02:31:56;;;;;;;8.90;3.90;;;8.50;86.50;;;;;;5034173;28;20190;-88
2021/05/24 02:34:21;;;;;;;6.43;3.73;;;8.50;86.90;;;;;;5016011;28;20181;-88
2021/05/24 02:36:47;;;;;;;5.17;3.63;;;8.50;86.80;;;;;;5015870;28;20200;-88
2021/05/24 02:39:13;;;;;;;8.07;3.83;;;8.50;86.70;;;;;;5033940;28;20181;-88
2021/05/24 02:41:39;;;;;;;5.13;3.50;;;8.50;86.90;;;;;;5015963;28;20291;-89
2021/05/24 02:44:05;;;;;;;5.77;3.40;;;8.50;87.00;;;;;;5015856;28;20654;-88
2021/05/24 02:46:32;;;;;;;11.33;4.30;;;8.50;87.00;;;;;;5033707;28;20192;-88
2021/05/24 02:48:57;;;;;;;9.50;3.80;;;8.50;87.00;;;;;;5015853;28;20231;-88
2021/05/24 02:51:23;;;;;;;5.17;3.33;;;8.50;87.00;;;;;;5032416;28;20598;-88
2021/05/24 02:53:48;;;;;;;4.83;3.67;;;8.60;86.70;;;;;;5015769;28;20177;-88
2021/05/24 02:56:14;;;;;;;10.70;3.90;;;8.60;86.90;;;;;;5033232;28;20284;-88
2021/05/24 02:58:40;;;;;;;5.57;3.53;;;8.60;87.10;;;;;;5015658;28;20208;-87
2021/05/24 03:01:05;;;;;;;8.17;3.20;;;8.60;86.90;;;;;;5033344;28;20685;-88
2021/05/24 03:03:33;;;;;;;8.30;3.90;;;8.60;86.70;;;;;;5033314;28;20169;-88
2021/05/24 03:06:03;;;;;;;6.27;3.27;;;8.60;86.60;;;;;;5015452;28;20688;-88
2021/05/24 03:08:30;;;;;;;8.47;3.40;;;8.60;86.40;;;;;;5039582;28;20180;-88
2021/05/24 03:10:57;;;;;;;4.93;3.03;;;8.60;86.10;;;;;;5022146;28;20273;-88
2021/05/24 03:13:25;;;;;;;6.43;3.63;;;8.70;85.90;;;;;;5022202;28;20533;-88
2021/05/24 03:15:57;;;;;;;6.40;3.20;;;8.70;86.00;;;;;;5022029;28;20200;-88
2021/05/24 03:18:23;;;;;;;8.27;3.53;;;8.70;85.80;;;;;;5038610;28;20199;-88
2021/05/24 03:20:49;;;;;;;7.97;3.93;;;8.80;85.70;;;;;;5039627;28;20656;-88
2021/05/24 03:23:15;;;;;;;10.13;3.60;;;8.80;85.60;;;;;;5038466;28;20628;-88
2021/05/24 03:25:40;;;;;;;6.00;3.53;;;8.90;85.50;;;;;;5022030;28;20201;-88
2021/05/24 03:28:06;;;;;;;5.43;3.30;;;8.90;85.10;;;;;;5039938;28;20326;-88
2021/05/24 03:30:32;;;;;;;6.83;3.27;;;8.90;84.70;;;;;;5038763;28;20275;-88
2021/05/24 03:32:59;;;;;;;3.77;2.43;;;8.90;84.60;;;;;;5021830;28;20184;-88
2021/05/24 03:35:25;;;;;;;7.30;3.30;;;8.90;84.40;;;;;;5021742;28;20211;-88
2021/05/24 03:37:50;;;;;;;5.40;2.83;;;8.90;84.50;;;;;;5021869;28;20185;-88
2021/05/24 03:40:17;;;;;;;6.57;3.10;;;8.90;84.10;;;;;;5038361;28;20213;-88
2021/05/24 03:42:43;;;;;;;6.97;3.03;;;8.90;83.90;;;;;;5021916;28;20597;-88
2021/05/24 03:45:13;;;;;;;4.10;2.63;;;9.00;83.90;;;;;;5021731;28;20238;-88
2021/05/24 03:47:38;;;;;;;8.77;2.97;;;9.00;84.00;;;;;;5022703;28;20601;-88
2021/05/24 03:50:06;;;;;;;6.30;3.00;;;9.00;84.10;;;;;;5021804;28;20239;-88
2021/05/24 03:52:31;;;;;;;5.40;2.90;;;9.00;84.40;;;;;;5039398;28;20170;-88
2021/05/24 03:54:57;;;;;;;6.23;3.07;;;9.00;84.60;;;;;;5021675;28;20279;-88
2021/05/24 03:57:23;;;;;;;7.27;2.70;;;9.00;84.50;;;;;;5039458;28;20196;-88
2021/05/24 03:59:48;;;;;;;4.33;2.70;;;9.00;84.60;;;;;;5021670;28;20199;-88
2021/05/24 04:02:14;;;;;;;6.13;2.97;;;9.00;84.40;;;;;;5021675;28;20180;-88
2021/05/24 04:04:40;;;;;;;6.93;3.03;;;9.00;84.30;;;;;;5021461;28;20675;-88
2021/05/24 04:07:08;;;;;;;7.80;2.73;;;9.10;84.50;;;;;;5021761;28;20171;-88
2021/05/24 04:09:35;;;;;;;10.60;2.23;;;9.10;84.50;;;;;;5021645;28;20169;-87
2021/05/24 04:12:00;;;;;;;7.03;2.80;;;9.10;84.10;;;;;;5021637;28;20314;-88
2021/05/24 04:14:26;;;;;;;4.13;2.80;;;9.10;83.80;;;;;;5039296;28;20226;-87
2021/05/24 04:16:52;;;;;;;7.17;2.90;;;9.20;83.60;;;;;;5021383;28;20677;-87
2021/05/24 04:19:18;;;;;;;6.13;2.80;;;9.20;83.80;;;;;;5018062;28;20267;-87
2021/05/24 04:21:44;;;;;;;5.67;2.63;;;9.20;83.80;;;;;;5034748;28;20208;-87
2021/05/24 04:24:11;;;;;;;5.43;2.67;;;9.30;83.50;;;;;;5034861;28;20180;-87
2021/05/24 04:26:38;;;;;;;6.43;2.70;;;9.30;83.20;;;;;;5018311;28;20192;-87
2021/05/24 04:29:04;;;;;;;6.23;3.00;;;9.30;83.10;;;;;;5034803;28;20636;-87
2021/05/24 04:31:31;;;;;;;6.90;2.73;;;9.30;83.30;;;;;;5002152;28;20184;-87
2021/05/24 04:33:56;;;;;;;6.90;2.47;;;9.30;83.50;;;;;;5034706;28;20546;-88
2021/05/24 04:36:22;;;;;;;6.33;2.70;;;9.30;83.30;;;;;;5035805;28;20193;-87
2021/05/24 04:38:48;;;;;;;8.40;2.63;;;9.40;83.30;;;;;;5018121;28;20687;-88
2021/05/24 04:41:14;;;;;;;5.03;2.47;;;9.40;83.10;;;;;;5017962;28;20691;-88
2021/05/24 04:43:41;;;;;;;7.03;2.63;;;9.30;83.10;;;;;;5034509;28;20184;-88
2021/05/24 04:46:07;;;;;;;8.60;2.50;;;9.40;83.10;;;;;;5017932;28;20204;-87
2021/05/24 04:48:34;;;;;;;3.90;2.87;;;9.40;82.90;;;;;;5017972;28;20527;-88
2021/05/24 04:51:04;;;;;;;5.10;2.40;;;9.40;82.90;;;;;;5017929;28;20177;-88
2021/05/24 04:53:30;;;;;;;3.87;2.57;;;9.50;82.80;;;;;;5017776;28;20177;-88
2021/05/24 04:55:56;;;;;;;3.97;2.60;;;9.50;82.70;;;;;;5034267;28;20227;-88
2021/05/24 04:58:22;;;;;;;3.83;2.23;;;9.50;82.90;;;;;;5017648;28;20647;-88
2021/05/24 05:00:48;;;;;;;8.27;2.50;;;9.50;82.80;;;;;;5035340;28;20193;-88
2021/05/24 05:03:14;;;;;;;3.40;2.00;;;9.60;82.90;;;;;;5018098;28;20630;-88
2021/05/24 05:05:41;;;;;;;3.33;2.07;;;9.70;83.00;;;;;;5017523;28;20227;-88
2021/05/24 05:08:07;;;;;;;5.13;2.43;;;9.70;83.40;;;;;;5017750;28;20181;-88
2021/05/24 05:10:33;;;;;;;7.07;2.03;;;9.80;83.00;;;;;;5017502;28;20181;-88
2021/05/24 05:12:58;;;;;;;4.00;2.20;;;9.90;82.90;;;;;;5017438;28;20188;-87
2021/05/24 05:15:24;;;;;;;4.00;2.23;;;10.00;82.70;;;;;;5017327;28;20200;-87
2021/05/24 05:17:50;;;;;;;5.80;2.27;;;10.20;82.60;;;;;;5017325;28;20200;-87
2021/05/24 05:20:15;;;;;;;5.03;2.13;;;10.30;82.00;;;;;;5017240;28;20224;-87
2021/05/24 05:22:41;;;;;;;4.83;2.27;;;10.30;82.60;;;;;;5033784;28;20177;-87
2021/05/24 05:25:09;;;;;;;5.53;2.30;;;10.40;81.80;;;;;;5034915;28;20212;-87
2021/05/24 05:27:34;;;;;;;6.57;2.07;;;10.50;82.20;;;;;;5034806;28;20244;-87
2021/05/24 05:30:00;;;;;;;13.13;2.80;;;10.60;82.40;;;;;;5034495;28;20251;-87
2021/05/24 05:32:26;;;;;;;5.93;2.10;;;10.60;82.50;;;;;;5017067;28;20637;-87
2021/05/24 05:34:51;;;;;;;4.03;2.10;;;10.70;81.90;;;;;;5016921;28;20173;-87
2021/05/24 05:37:20;;;;;;;3.63;2.07;;;10.80;82.20;;;;;;5016958;28;20268;-88
2021/05/24 05:39:48;;;;;;;4.00;2.30;;;10.90;82.40;;;;;;5034596;28;20165;-87
2021/05/24 05:42:14;;;;;;;5.20;1.90;;;11.00;81.80;;;;;;5016737;28;20197;-87
2021/05/24 05:44:39;;;;;;;5.27;1.87;;;11.30;82.20;;;;;;5033279;28;20172;-87
2021/05/24 05:47:05;;;;;;;4.33;1.90;;;11.40;82.10;;;;;;5017186;28;20176;-87
2021/05/24 05:49:31;;;;;;;9.00;2.00;;;11.50;81.10;;;;;;5016956;28;20204;-87
2021/05/24 05:51:56;;;;;;;3.40;1.70;;;11.50;79.90;;;;;;5034427;28;20199;-87
2021/05/24 05:54:22;;;;;;;2.50;1.60;;;11.70;79.80;;;;;;5016711;28;20195;-87
2021/05/24 05:56:47;;;;;;;1.67;1.50;;;11.80;79.90;;;;;;5034228;28;20193;-88
2021/05/24 05:59:13;;;;;;;5.40;2.13;;;12.00;79.70;;;;;;5016494;28;20181;-87
2021/05/24 06:01:39;;;;;;;3.73;1.60;;;12.00;79.20;;;;;;5034149;28;20192;-87
2021/05/24 06:04:05;;;;;;;7.07;1.80;;;12.10;79.70;;;;;;5016677;28;20676;-87
2021/05/24 06:06:31;;;;;;;1.80;1.60;;;12.20;77.00;;;;;;5032968;28;20212;-87
2021/05/24 06:08:57;;;;;;;5.53;1.80;;;12.20;76.60;;;;;;5016335;28;20208;-87
2021/05/24 06:11:22;;;;;;;2.90;1.70;;;12.20;76.40;;;;;;5017100;28;20176;-87
2021/05/24 06:13:48;;;;;;;1.93;1.63;;;12.30;76.00;;;;;;5033948;28;20176;-88
2021/05/24 06:16:15;;;;;;;4.23;1.97;;;12.30;76.80;;;;;;5017073;28;20718;-88
2021/05/24 06:18:41;;;;;;;2.50;1.50;;;12.30;76.70;;;;;;5016233;28;20268;-88
2021/05/24 06:21:06;;;;;;;3.43;1.63;;;12.30;77.40;;;;;;5016022;28;20629;-88
2021/05/24 06:23:32;;;;;;;2.57;1.70;;;12.30;76.80;;;;;;5016065;28;20227;-87
2021/05/24 06:25:58;;;;;;;4.03;1.50;;;12.30;75.70;;;;;;5016015;28;20273;-87
2021/05/24 06:28:23;;;;;;;5.80;1.83;;;12.30;76.50;;;;;;5017109;28;20315;-87
2021/05/24 06:30:49;;;;;;;3.03;1.60;;;12.30;76.50;;;;;;5033706;28;20606;-87
2021/05/24 06:33:15;;;;;;;4.30;1.80;;;12.40;75.70;;;;;;5016063;28;20203;-87
2021/05/24 06:35:41;;;;;;;4.93;1.63;;;12.40;76.50;;;;;;5033472;28;20247;-87
2021/05/24 06:38:06;;;;;;;2.97;1.47;;;12.60;75.80;;;;;;5033591;28;20176;-87
2021/05/24 06:40:32;;;;;;;4.10;1.77;;;12.70;75.10;;;;;;5015882;28;20180;-86
2021/05/24 06:42:58;;;;;;;6.10;1.77;;;12.70;76.00;;;;;;5015135;28;20271;-87
2021/05/24 06:45:23;;;;;;;7.77;1.40;;;12.80;74.80;;;;;;5015897;28;20614;-87
2021/05/24 06:47:49;;;;;;;5.63;1.40;;;12.80;74.40;;;;;;5016737;28;20169;-87
2021/05/24 06:50:15;;;;;;;2.10;1.20;;;12.90;73.10;;;;;;5015763;28;20573;-87
2021/05/24 06:52:41;;;;;;;1.50;1.40;;;12.90;72.90;;;;;;5015725;28;20533;-88
2021/05/24 06:55:08;;;;;;;4.93;1.47;;;13.10;73.40;;;;;;5015582;28;20197;-88
2021/05/24 06:57:33;;;;;;;5.33;1.60;;;13.10;74.50;;;;;;5033312;28;20715;-88
2021/05/24 06:59:59;;;;;;;2.27;1.40;;;13.10;73.30;;;;;;5015619;28;20219;-87
2021/05/24 07:02:25;;;;;;;3.57;1.50;;;13.30;74.70;;;;;;5032024;28;20183;-88
2021/05/24 07:04:50;;;;;;;6.73;2.23;;;13.40;74.20;;;;;;5015394;28;20267;-87
2021/05/24 07:07:16;;;;;;;4.80;1.50;;;13.60;72.50;;;;;;5015568;28;20180;-88
2021/05/24 07:09:41;;;;;;;3.23;1.60;;;13.50;71.50;;;;;;5015609;28;20177;-87
2021/05/24 07:12:08;;;;;;;4.33;1.50;;;13.60;72.70;;;;;;5015466;28;20616;-89
2021/05/24 07:14:34;;;;;;;2.53;1.30;;;13.60;72.20;;;;;;5015755;28;20177;-88
2021/05/24 07:17:00;;;;;;;1.90;1.40;;;13.50;73.00;;;;;;5015424;28;20618;-88
2021/05/24 07:19:26;;;;;;;2.40;1.43;;;13.70;70.20;;;;;;5015497;28;20177;-88
2021/05/24 07:21:53;;;;;;;5.57;1.90;;;13.80;71.30;;;;;;5015372;28;20659;-88
2021/05/24 07:24:18;;;;;;;3.90;1.40;;;13.90;71.90;;;;;;5033063;28;20169;-88
2021/05/24 07:26:46;;;;;;;3.13;1.40;;;14.10;69.80;;;;;;5031790;28;20251;-88
2021/05/24 07:29:12;;;;;;;5.20;1.40;;;14.20;72.20;;;;;;5033005;28;20196;-88
2021/05/24 07:31:37;;;;;;;1.33;1.10;;;14.40;70.60;;;;;;5015271;28;20661;-88
2021/05/24 07:34:03;;;;;;;3.07;1.20;;;14.60;69.40;;;;;;5015276;28;20183;-88
2021/05/24 07:36:29;;;;;;;3.20;1.47;;;14.80;70.00;;;;;;5032890;28;20545;-87
2021/05/24 07:38:54;;;;;;;3.03;1.10;;;14.70;68.30;;;;;;5033206;28;20169;-87
2021/05/24 07:41:20;;;;;;;1.40;1.30;;;14.90;67.90;;;;;;5015586;28;20181;-87
2021/05/24 07:43:45;;;;;;;1.93;0.90;;;15.00;69.80;;;;;;5015291;28;20184;-87
2021/05/24 07:46:11;;;;;;;1.30;1.07;;;15.00;69.10;;;;;;5031609;28;20204;-87
2021/05/24 07:48:37;;;;;;;0.77;0.77;;;15.00;68.60;;;;;;5031634;28;20189;-87
2021/05/24 07:51:03;;;;;;;3.60;1.10;;;15.10;69.60;;;;;;5015180;28;20204;-87
2021/05/24 07:53:30;;;;;;;4.07;1.20;;;15.20;67.40;;;;;;5016811;28;20204;-87
2021/05/24 07:55:55;;;;;;;3.83;1.00;;;15.20;66.70;;;;;;5018691;28;20197;-87
2021/05/24 07:58:21;;;;;;;4.67;1.00;;;15.10;66.70;;;;;;5036443;28;20169;-86
2021/05/24 08:00:47;;;;;;;5.90;1.20;;;15.20;67.40;;;;;;5036642;28;20230;-86
2021/05/24 08:03:13;;;;;;;1.80;1.20;;;15.40;68.10;;;;;;5036290;28;20173;-87
2021/05/24 08:05:38;;;;;;;1.50;1.00;;;15.60;65.90;;;;;;5036423;28;20286;-87
2021/05/24 08:08:05;;;;;;;2.83;1.10;;;15.60;67.50;;;;;;5036336;28;20180;-87
2021/05/24 08:10:31;;;;;;;8.40;1.10;;;15.80;65.50;;;;;;5034904;28;20204;-87
2021/05/24 08:12:57;;;;;;;3.40;1.20;;;16.00;67.70;;;;;;5036200;28;20295;-87
2021/05/24 08:15:32;;;;;;;3.23;1.10;;;15.90;64.90;;;;;;5018467;28;20224;-87
2021/05/24 08:18:04;;;;;;;2.23;1.00;;;15.80;64.70;;;;;;5036481;28;20160;-88
2021/05/24 08:20:31;;;;;;;2.03;0.90;;;15.70;64.20;;;;;;5018410;28;20658;-88
2021/05/24 08:22:56;;;;;;;4.13;0.90;;;15.70;64.70;;;;;;5018391;28;20276;-88
2021/05/24 08:25:22;;;;;;;2.17;1.10;;;15.80;64.40;;;;;;5019117;28;20287;-87
2021/05/24 08:27:48;;;;;;;1.97;0.90;;;16.00;63.10;;;;;;5035961;28;20177;-88
2021/05/24 08:30:14;;;;;;;4.10;1.00;;;16.20;65.20;;;;;;5035912;28;20551;-89
2021/05/24 08:32:40;;;;;;;5.20;1.42;;;16.10;64.70;;;;;;5035815;28;20169;-88
2021/05/24 08:35:08;;;;;;;1.65;1.10;;;16.10;63.60;;;;;;5017993;28;20196;-86
2021/05/24 08:37:34;;;;;;;3.35;1.00;;;16.30;66.20;;;;;;5017945;28;20175;-85
2021/05/24 08:40:01;;;;;;;2.58;1.10;;;16.40;62.40;;;;;;5034455;28;20172;-85
2021/05/24 08:42:31;;;;;;;3.17;1.17;;;16.50;63.80;;;;;;5035547;28;20169;-86
2021/05/24 08:44:58;;;;;;;1.08;0.93;;;16.70;62.10;;;;;;5035563;28;20181;-85
2021/05/24 08:47:24;;;;;;;4.05;1.10;;;16.70;62.00;;;;;;5017861;28;20168;-86
2021/05/24 08:49:53;;;;;;;3.33;1.23;;;16.70;62.20;;;;;;5017792;28;20177;-86
2021/05/24 08:52:18;;;;;;;2.20;0.98;;;16.80;61.40;;;;;;5017668;28;20557;-86
2021/05/24 08:54:44;;;;;;;3.42;1.20;;;17.00;62.00;;;;;;5017688;28;20307;-86
2021/05/24 08:57:09;;;;;;;4.32;1.10;;;17.30;61.30;;;;;;5035534;28;20215;-86
2021/05/24 08:59:35;;;;;;;2.47;1.15;;;17.10;61.20;;;;;;5017577;28;20176;-86
2021/05/24 09:02:02;;;;;;;2.40;1.17;;;17.20;59.90;;;;;;5035353;28;20553;-86
2021/05/24 09:04:41;;;;;;;1.80;0.93;;;17.00;58.80;;;;;;5034459;28;20173;-86
2021/05/24 09:07:07;;;;;;;2.05;0.88;;;17.00;59.30;;;;;;5017472;28;20185;-86
2021/05/24 09:09:32;;;;;;;2.55;1.02;;;17.30;61.70;;;;;;5017323;28;20179;-86
2021/05/24 09:11:59;;;;;;;5.47;1.10;;;17.40;59.90;;;;;;5017291;28;20571;-86
2021/05/24 09:14:25;;;;;;;1.45;0.80;;;17.50;59.90;;;;;;5017384;28;20183;-86
2021/05/24 09:17:09;;;;;;;3.47;0.90;;;17.40;58.00;;;;;;5035035;28;20180;-86
2021/05/24 09:19:37;;;;;;;2.03;1.08;;;17.50;59.50;;;;;;5033759;28;20164;-86
2021/05/24 09:22:06;;;;;;;2.85;0.90;;;17.60;59.10;;;;;;5034896;28;20176;-86
2021/05/24 09:24:36;;;;;;;5.10;1.15;;;17.80;60.30;;;;;;5017139;28;20203;-86
2021/05/24 09:27:22;;;;;;;3.22;1.20;;;17.90;58.20;;;;;;5017330;28;20169;-86
2021/05/24 09:29:48;;;;;;;1.95;1.15;;;17.90;58.70;;;;;;5017446;28;20168;-85
2021/05/24 09:32:19;;;;;;;3.67;2.00;;;17.80;56.50;;;;;;5017096;28;20694;-86
2021/05/24 09:34:47;;;;;;;4.20;1.77;;;17.80;56.50;;;;;;5016991;28;20173;-85
2021/05/24 09:37:14;;;;;;;2.90;1.42;;;17.90;56.00;;;;;;5016977;28;20172;-85
2021/05/24 09:39:40;;;;;;;2.58;0.93;;;18.00;56.70;;;;;;5034761;28;20199;-86
2021/05/24 09:42:12;;;;;;;1.98;0.95;;;18.20;58.50;;;;;;5016774;28;20238;-86
2021/05/24 09:44:53;;;;;;;2.55;1.23;;;18.30;56.60;;;;;;5016706;28;20204;-85
2021/05/24 09:47:36;;;;;;;2.00;0.85;;;18.30;55.60;;;;;;5034745;28;20176;-86
2021/05/24 09:50:10;;;;;;;2.35;0.80;;;18.20;55.80;;;;;;5016688;28;20543;-87
2021/05/24 09:52:37;;;;;;;3.15;1.08;;;18.10;54.70;;;;;;5016547;28;20663;-86
2021/05/24 09:55:24;;;;;;;2.88;1.25;;;18.20;56.60;;;;;;5017063;28;20799;-87
2021/05/24 09:58:11;;;;;;;3.88;0.70;;;18.30;54.00;;;;;;5016574;28;20215;-87
2021/05/24 10:00:45;;;;;;;5.15;1.25;;;18.40;55.90;;;;;;5034231;28;20161;-87
2021/05/24 10:03:12;;;;;;;3.95;1.10;;;18.50;55.30;;;;;;5016592;28;20246;-87
2021/05/24 10:05:50;;;;;;;1.42;0.50;;;18.70;55.60;;;;;;5016501;28;20270;-86
2021/05/24 10:08:16;;;;;;;2.17;0.95;;;18.40;52.00;;;;;;5016399;28;20176;-86
2021/05/24 10:10:42;;;;;;;2.85;0.85;;;18.30;54.00;;;;;;5035589;28;20251;-86
2021/05/24 10:13:09;;;;;;;1.83;0.90;;;18.00;52.70;;;;;;5034458;28;20256;-87
2021/05/24 10:15:40;;;;;;;5.80;0.77;;;17.70;54.30;;;;;;5016623;28;20188;-86
2021/05/24 10:18:06;;;;;;;3.33;1.13;;;17.70;55.70;;;;;;5015972;28;20736;-87
2021/05/24 10:20:33;;;;;;;1.48;0.82;;;18.10;54.90;;;;;;5017254;28;20204;-87
2021/05/24 10:22:59;;;;;;;2.17;0.85;;;18.30;52.90;;;;;;5035217;28;20577;-85
2021/05/24 10:25:26;;;;;;;2.35;0.90;;;18.70;51.70;;;;;;5035688;28;20199;-86
2021/05/24 10:27:52;;;;;;;2.72;0.68;;;18.80;54.20;;;;;;5035555;28;20543;-86
2021/05/24 10:30:19;;;;;;;8.90;1.10;;;18.80;52.70;;;;;;5017450;28;20180;-86
2021/05/24 10:32:55;;;;;;;2.83;0.70;;;19.00;53.40;;;;;;5033981;28;20177;-86
2021/05/24 10:35:38;;;;;;;2.65;1.00;;;18.80;52.30;;;;;;5036264;28;20192;-87
2021/05/24 10:38:21;;;;;;;3.40;0.80;;;18.80;51.60;;;;;;5017018;28;20179;-87
2021/05/24 10:40:47;;;;;;;2.42;0.85;;;18.80;51.20;;;;;;5017053;28;20188;-86
2021/05/24 10:43:16;;;;;;;4.40;0.82;;;18.80;51.50;;;;;;5036738;28;20225;-87
2021/05/24 10:45:41;;;;;;;1.58;1.10;;;18.60;52.70;;;;;;5017162;28;20199;-87
2021/05/24 10:48:07;;;;;;;3.40;0.85;;;18.40;52.00;;;;;;5032130;28;20177;-86
2021/05/24 10:50:35;;;;;;;1.92;0.85;;;18.50;53.40;;;;;;5033837;28;20668;-87
2021/05/24 10:53:20;;;;;;;3.50;1.05;;;19.00;51.60;;;;;;5035053;28;20146;-86
2021/05/24 10:55:50;;;;;;;3.63;1.00;;;19.20;51.00;;;;;;5033283;28;20243;-86
2021/05/24 10:58:20;;;;;;;1.52;0.93;;;19.20;50.30;;;;;;5015531;28;20172;-86
2021/05/24 11:00:59;;;;;;;5.63;0.90;;;19.40;48.70;;;;;;5033441;28;20180;-87
2021/05/24 11:03:25;;;;;;;1.52;0.70;;;19.50;50.50;;;;;;5017075;28;20591;-86
2021/05/24 11:06:16;;;;;;;0.80;0.70;;;19.70;47.10;;;;;;5034897;28;20212;-87
2021/05/24 11:09:01;;;;;;;2.08;1.00;;;19.60;46.00;;;;;;5044293;28;20153;-86
2021/05/24 11:11:34;;;;;;;4.65;0.77;;;19.20;48.30;;;;;;5035125;28;20198;-87
2021/05/24 11:14:02;;;;;;;3.95;0.80;;;19.30;50.80;;;;;;5033592;28;20613;-86
2021/05/24 11:16:29;;;;;;;1.65;0.60;;;19.50;47.50;;;;;;5015599;28;20200;-86
2021/05/24 11:19:10;;;;;;;1.60;0.85;;;19.00;46.10;;;;;;5033282;28;20247;-87
2021/05/24 11:21:37;;;;;;;0.73;0.60;;;19.10;47.80;;;;;;5015903;28;20530;-87
2021/05/24 11:24:36;;;;;;;0.88;0.60;;;19.50;44.80;;;;;;5016707;28;20754;-87
2021/05/24 11:27:14;;;;;;;2.25;0.50;;;19.80;43.70;;;;;;5033348;28;20211;-86
2021/05/24 11:29:43;;;;;;;2.45;0.93;;;20.00;43.50;;;;;;5038312;28;20164;-86
2021/05/24 11:32:27;;;;;;;0.95;0.60;;;19.90;43.90;;;;;;5036832;28;20291;-86
2021/05/24 11:34:54;;;;;;;0.90;0.47;;;20.00;43.80;;;;;;5019400;28;20318;-85
2021/05/24 11:37:21;;;;;;;2.08;0.60;;;19.90;42.00;;;;;;5038127;28;20239;-87
2021/05/24 11:39:54;;;;;;;3.20;0.60;;;20.10;44.40;;;;;;5037761;28;20640;-86
2021/05/24 11:42:29;;;;;;;2.58;0.80;;;20.20;44.70;;;;;;5019987;28;20177;-86
2021/05/24 11:44:58;;;;;;;0.43;0.43;;;20.20;43.90;;;;;;5019752;28;20196;-86
2021/05/24 11:47:25;;;;;;;1.38;0.50;;;20.40;39.50;;;;;;5036901;28;20306;-86
2021/05/24 11:50:01;;;;;;;1.45;0.52;;;20.40;42.40;;;;;;5037654;28;20173;-87
2021/05/24 11:52:30;;;;;;;2.90;0.50;;;20.30;41.90;;;;;;5037521;28;20211;-86
2021/05/24 11:54:56;;;;;;;1.42;0.57;;;20.40;41.20;;;;;;5037417;28;20235;-85
2021/05/24 11:57:23;;;;;;;1.20;0.43;;;20.30;39.50;;;;;;5020613;28;20169;-86
2021/05/24 11:59:50;;;;;;;1.38;0.70;;;20.20;39.00;;;;;;5021007;28;20169;-86
2021/05/24 12:02:16;;;;;;;2.47;0.55;;;20.20;38.30;;;;;;5037936;28;20172;-87
2021/05/24 12:04:47;;;;;;;3.78;1.33;;;20.60;40.40;;;;;;5019478;28;20644;-86
2021/05/24 12:07:22;;;;;;;6.97;0.95;;;21.00;38.80;;;;;;5121143;22;20250;-89
2021/05/24 12:09:53;;;;;;;3.30;0.60;;;21.00;39.80;;;;;;5056715;28;20602;-87
2021/05/24 12:12:37;;;;;;;2.30;0.80;;;20.90;39.80;;;;;;5057024;28;20558;-88
2021/05/24 12:15:16;;;;;;;4.07;0.57;;;21.00;41.40;;;;;;5038675;28;20171;-87
2021/05/24 12:17:46;;;;;;;3.38;0.80;;;21.30;40.50;;;;;;5056224;28;20245;-88
2021/05/24 12:20:12;;;;;;;4.10;0.75;;;21.40;40.30;;;;;;5038457;28;20229;-88
2021/05/24 12:22:41;;;;;;;1.17;0.57;;;21.00;39.60;;;;;;5056714;28;20664;-87
2021/05/24 12:25:09;;;;;;;0.57;0.50;;;20.90;38.80;;;;;;5056615;28;20164;-88
2021/05/24 12:27:35;;;;;;;2.60;0.90;;;20.50;38.00;;;;;;5037897;28;20670;-86
2021/05/24 12:30:13;;;;;;;4.88;1.08;;;20.30;39.80;;;;;;5055838;28;20225;-87
2021/05/24 12:32:42;;;;;;;2.38;0.82;;;19.90;39.20;;;;;;5055870;28;20153;-86
2021/05/24 12:35:11;;;;;;;1.17;0.50;;;20.20;41.30;;;;;;5055891;28;20172;-86
2021/05/24 12:37:39;;;;;;;4.30;0.70;;;20.20;39.20;;;;;;5055727;28;20246;-86
2021/05/24 12:40:08;;;;;;;0.82;0.70;;;20.10;40.50;;;;;;5036653;28;20176;-87
2021/05/24 12:42:37;;;;;;;1.70;0.57;;;20.20;41.10;;;;;;5037689;28;20172;-86
2021/05/24 12:45:06;;;;;;;2.45;0.90;;;20.30;40.70;;;;;;5055849;28;20510;-87
2021/05/24 12:47:32;;;;;;;3.05;0.70;;;20.30;39.50;;;;;;5055565;28;20192;-86
2021/05/24 12:50:15;;;;;;;1.17;0.52;;;20.30;42.30;;;;;;5037601;28;20233;-86
2021/05/24 12:52:41;;;;;;;1.83;0.82;;;20.60;41.70;;;;;;5037772;28;20227;-87